Aviation Digital Data Service (ADDS)

Output produced by METARs form (1305 UTC 15 November 2018)
found at http://www.aviationweather.gov/metar/data/
 
TAF SBAT 151000Z 1512/1524 13005KT 9999 SCT015 FEW030TCU TN26/1512Z TX33/1518Z 
     BECMG 1516/1518 34005KT SCT030 FEW035TCU 
     BECMG 1521/1523 36005KT FEW030 RMK PCQ
       
TAF SBAN 151000Z 1512/1524 36007KT 9999 SCT015 TX27/1516Z TN20/1523Z 
     BECMG 1513/1515 33006KT BKN030 FEW040TCU 
     PROB40 1515/1518 8000 TSRA BKN030 FEW040CB 
     BECMG 1518/1519 28004KT SCT035 FEW040TCU 
     PROB40 1519/1523 8000 TSRA SCT035 FEW045CB RMK PEJ
       
TAF SBAR 151000Z 1512/1524 10012KT 9999 SCT018 TX29/1515Z TN27/1523Z RMK PEI
       
TAF SBBG 150900Z 1512/1612 29008KT CAVOK TX28/1518Z TN15/1608Z 
     BECMG 1514/1516 25008KT 
     BECMG 1600/1602 15006KT 
     PROB40 1606/1609 4000 BR FEW006 RMK PCX
       
TAF SBBW 151000Z 1512/1524 20003KT 9999 FEW010 TX32/1516Z TN25/1523Z 
     BECMG 1513/1514 04006KT SCT020 FEW025TCU
     TEMPO 1515/1522 8000 TSRA SCT020 FEW025CB 
     BECMG 1520/1521 30003KT RMK PEJ
       
TAF SBBU 150900Z 1512/1524 20005KT CAVOK TX32/1518Z TN25/1524Z 
     BECMG 1512/1514 9999 SCT035 
     BECMG 1514/1516 25007KT SCT035 FEW040TCU 
     TEMPO 1516/1520 8000 SHRA 
     BECMG 1522/1524 10008KT FEW035 RMK PCX
       
TAF SBBE 151000Z 1512/1612 08008KT 9999 FEW025 TX31/1516Z TN24/1606Z 
     BECMG 1516/1518 36010KT SCT030 FEW035TCU 
     PROB30 1520/1522 TS SCT030 FEW035 CB 
     BECMG 1522/1524 06008KT FEW030 RMK PCQ
       
TAF SBCF 151000Z 1512/1612 05008KT 9999 SCT025 TX29/1516Z TN19/1608Z 
     BECMG 1513/1514 03007KT BKN040 
     BECMG 1515/1516 BKN040 FEW045TCU 
     PROB40 1516/1523 8000 TSRA BKN035 FEW045CB 
     BECMG 1520/1521 SCT030 FEW045TCU 
     BECMG 1523/1601 07006KT FEW030 
     BECMG 1602/1604 CAVOK 
     BECMG 1608/1610 06007KT 9999 FEW025 RMK PEJ
       
TAF SBBV 151000Z 1512/1612 08007KT CAVOK TX34/1517Z TN26/1607Z 
     BECMG 1516/1517 13008KT 9999 SCT040 FEW045TCU 
     BECMG 1522/1524 09005KT FEW040 RMK PCQ
       
TAF SBLP 151000Z 1512/1524 12005KT 9999 SCT030 TN28/1512Z TX33/1518Z 
     TEMPO 1519/1521 TS SCT025 FEW030CB RMK PEI
       
TAF SBBR 151000Z 1512/1612 04007KT 9999 SCT015 TX27/1516Z TN18/1608Z 
     BECMG 1512/1513 BKN030 
     BECMG 1514/1515 SCT035 FEW040TCU 
     PROB40 1515/1520 8000 TSRA SCT035 FEW040CB 
     BECMG 1520/1522 07004KT FEW040 FEW045TCU 
     PROB30 1523/1603 TS FEW040 FEW045CB 
     BECMG 1603/1604 FEW020 
     BECMG 1606/1607 11004KT SCT010 
     PROB40 1607/1611 BKN008 RMK PEJ
       
TAF SBCB 150830Z 1512/1612 07010KT 8000 SCT020 TX32/1516Z TN22/1608Z 
     BECMG 1512/1514 05010KT 
     BECMG 1514/1516 03010KT 
     BECMG 1518/1520 01007KT 
     BECMG 1522/1524 04007KT 
     BECMG 1603/1604 32007KT 
     BECMG 1608/1610 30005KT RMK PGW
       
TAF SBKG 151000Z 1512/1524 12015KT 9999 BKN030 TX31/1516Z TN25/1523Z 
     BECMG 1515/1516 SCT025 
     BECMG 1518/1520 CAVOK RMK PEI
       
TAF SBKP 150808Z 1512/1612 02008KT 9999 FEW035 TX29/1515Z TN19/1608Z 
     TEMPO 1512/1520 29008KT 8000 TSRA SCT030 FEW045CB 
     TEMPO 1520/1601 24007KT 6000 RA BKN030 
     BECMG 1601/1603 13012KT 9999 BKN020 RMK PGO
       
TAF SBCG 150900Z 1512/1612 29006KT 9999 BKN028 BKN035 TX30/1517Z TN24 /1608Z 
     BECMG 1513/1515 25006KT SCT030 FEW040TCU 
     PROB40 
     TEMPO 1516/1520 SHRA 
     BECMG 1520/1522 09007KT SCT030 
     BECMG 1600/1602 SCT005 BKN020 
     BECMG 1 610/1612 SCT025 BKN035 RMK PCX
       
TAF SBCP 150830Z 1512/1524 04005KT 8000 SCT020 TX32/1516Z TN25/1524Z 
     BECMG 1512/1514 06010KT 
     BECMG 1516/1518 08010KT 
     BECMG 1519/1521 06007KT RMK PGW
       
TAF SBCR 150900Z 1512/1612 24005KT 9999 SCT030 TN25/1512Z TX32/1518Z 
     BECMG 1514/1516 9999 SCT035 FEW040TCU 
     PROB40 1517/1519 VCSH 
     BECMG 1519/152 1 20005KT SCT040 RMK PCX
       
TAF SBCT 150900Z 1512/1612 23005KT 9999 SCT030 TX25/1518Z TN14/1608Z 
     BECMG 1512/1514 09007KT SCT035 
     BECMG 1517/1519 FEW035 
     BECMG 1604/1606 SCT0 12 SCT030 
     PROB40 1607/1610 4000 BR BKN008 RMK PCX
       
TAF SBBI 150900Z 1512/1524 23005KT 9999 SCT030 TX20/1516Z TN16/1524Z 
     BECMG 1512/1514 09007KT SCT035 
     BECMG 1517/1519 FEW035 RMK PCX
       
TAF SBFN 151000Z 1512/1524 12014KT 9999 SCT017 TX32/1515Z TN26/1523Z RMK PEI
       
TAF SBFL 150900Z 1512/1612 20010KT CAVOK TX28/1517Z TN19/1608Z 
     PROB40 1518/1522 9999 FEW030 
     BECMG 1600/1602 26005KT RMK PCX
       
TAF SBFZ 151000Z 1512/1612 11018KT 9999 BKN020 TX31/1514Z TN26/1608Z 
     BECMG 1515/1516 09017KT 
     BECMG 1521/1522 09012KT 
     BECMG 1605/1606 11015KT 
     BECMG 1609/1611 BKN020 RMK PEI
       
TAF SBFI 150900Z 1512/1612 20005KT 9999 SCT035 TX30/1518Z TN17/1608Z 
     BECMG 1515/1517 CAVOK 
     BECMG 1523/1601 17007KT RMK PCX
       
TAF SBGO 151000Z 1512/1612 34008KT 9999 SCT025 TX30/1516Z TN21/1608Z 
     BECMG 1514/1415 30007KT SCT035 FEW045TCU
     TEMPO 1517/1603 8000 TSRA SCT035 FEW045CB 
     BECMG 1522/1524 34005KT FEW040 
     BECMG 1604/1606 01003KT CAVOK RMK PEJ
       
TAF SBGW 150900Z 1512/1524 06005KT 9999 FEW035 TX31/1518Z TN20/1524Z 
     BECMG 1513/1515 BKN030 
     PROB40 
     TEMPO 1515/1521 SHRA BKN030 FEW040TCU RMK PCX
       
TAF SBIL 151000Z 1512/1524 08009KT 9999 SCT020 TX29/1516Z TN24/1523Z RMK PEI
       
TAF SBIZ 151000Z 1512/1524 09005KT 9999 SCT025 TN30/1512Z TX36/1518Z 
     BECMG 1514/1516 06005KT BKN025 
     BECMG 1520/1522 33005KT FEW025 FEW030TCU RMK PCQ
       
TAF SBIH 151000Z 1512/1524 14005KT 6000 FEW015 TN27/1512Z TX33/1517Z 
     BECMG 1514/1516 09005KT 9999 SCT023 
     BECMG 1521/1523 00000KT FEW025 RMK PCQ